Time;durP1;ratioP1;P1;durP2;ratioP2;P2;SDS_P1;SDS_P2;PMS_P1;PMS_P2;Temp;Humidity;BMP_temperature;BMP_pressure;BME280_temperature;BME280_humidity;BME280_pressure;Samples;Min_cycle;Max_cycle;Signal;HPM_P1;HPM_P2
2022/04/19 00:00:37;;;;;;;3.70;1.42;;;;;;;8.35;55.05;101150.78;5008435;28;20104;-71
2022/04/19 00:03:05;;;;;;;3.40;1.17;;;;;;;8.21;55.52;101143.38;5000636;28;20069;-71
2022/04/19 00:05:32;;;;;;;2.47;1.30;;;;;;;8.12;55.56;101138.50;5008991;28;20049;-71
2022/04/19 00:07:58;;;;;;;3.35;1.42;;;;;;;7.81;56.67;101139.56;5007032;28;20512;-71
2022/04/19 00:10:26;;;;;;;1.77;1.08;;;;;;;7.56;56.94;101148.25;5007825;28;20037;-70
2022/04/19 00:12:53;;;;;;;2.13;1.17;;;;;;;7.57;56.89;101129.94;4982013;28;20502;-70
2022/04/19 00:15:21;;;;;;;2.45;1.30;;;;;;;7.62;56.61;101137.59;4972620;28;20520;-70
2022/04/19 00:17:48;;;;;;;4.57;1.23;;;;;;;7.65;56.16;101133.13;5003111;28;20072;-70
2022/04/19 00:20:15;;;;;;;3.47;1.63;;;;;;;7.69;56.39;101126.06;4994849;28;20054;-71
2022/04/19 00:22:41;;;;;;;3.90;1.60;;;;;;;7.75;56.24;101133.69;5002189;28;20046;-71
2022/04/19 00:25:08;;;;;;;5.05;2.03;;;;;;;7.54;56.87;101135.25;4995809;28;20411;-71
2022/04/19 00:27:35;;;;;;;3.08;1.67;;;;;;;7.32;57.60;101132.47;5036480;28;20053;-71
2022/04/19 00:30:03;;;;;;;3.55;1.63;;;;;;;7.01;58.78;101128.28;5018104;28;20030;-71
2022/04/19 00:32:30;;;;;;;3.60;1.40;;;;;;;7.10;58.76;101128.00;5000511;28;20050;-70
2022/04/19 00:34:59;;;;;;;4.75;1.40;;;;;;;7.10;59.14;101121.03;5009753;28;20104;-70
2022/04/19 00:37:25;;;;;;;2.85;1.50;;;;;;;7.14;59.07;101120.03;5010755;28;20050;-70
2022/04/19 00:39:52;;;;;;;2.92;1.40;;;;;;;7.14;59.03;101120.03;5000411;28;20096;-71
2022/04/19 00:42:19;;;;;;;4.03;1.48;;;;;;;7.31;58.87;101122.13;5004742;28;20421;-72
2022/04/19 00:44:45;;;;;;;4.75;1.70;;;;;;;7.50;58.13;101120.59;5010628;28;20049;-72
2022/04/19 00:47:15;;;;;;;2.70;1.55;;;;;;;7.37;57.87;101115.84;5012934;28;20042;-72
2022/04/19 00:49:43;;;;;;;2.75;1.40;;;;;;;7.45;57.67;101109.47;5019884;28;20053;-72
2022/04/19 00:52:10;;;;;;;5.53;1.67;;;;;;;7.58;57.29;101109.91;5036991;28;20044;-72
2022/04/19 00:54:36;;;;;;;4.00;1.50;;;;;;;7.53;56.88;101122.28;5028804;28;20034;-71
2022/04/19 00:57:04;;;;;;;4.88;1.55;;;;;;;7.37;57.48;101110.63;5026222;28;20038;-71
2022/04/19 00:59:31;;;;;;;4.82;1.60;;;;;;;7.43;57.26;101113.88;5034047;28;20150;-71
2022/04/19 01:01:57;;;;;;;4.10;1.70;;;;;;;7.38;57.09;101102.75;5030169;28;20049;-71
2022/04/19 01:04:24;;;;;;;3.03;1.55;;;;;;;7.42;56.59;101111.34;5025191;28;20095;-71
2022/04/19 01:06:52;;;;;;;1.88;1.20;;;;;;;7.37;56.13;101101.03;5011074;28;20046;-71
2022/04/19 01:09:20;;;;;;;4.15;1.73;;;;;;;7.27;55.96;101095.28;5009923;28;20191;-72
2022/04/19 01:14:31;;;;;;;2.53;1.23;;;;;;;6.89;55.94;101098.22;5001540;28;20060;-71
2022/04/19 01:16:58;;;;;;;4.82;1.50;;;;;;;6.89;55.39;101087.81;5009509;28;20046;-71
2022/04/19 01:19:25;;;;;;;4.70;1.65;;;;;;;6.79;55.10;101087.25;5008841;28;20180;-71
2022/04/19 01:21:54;;;;;;;2.17;1.38;;;;;;;6.85;55.23;101091.41;5009141;28;20046;-71
2022/04/19 01:24:22;;;;;;;3.03;1.48;;;;;;;6.82;55.18;101096.72;5000627;28;20050;-71
2022/04/19 01:26:49;;;;;;;3.75;1.70;;;;;;;6.92;54.63;101095.53;5001222;28;20053;-71
2022/04/19 01:29:17;;;;;;;2.60;1.60;;;;;;;7.00;54.10;101085.72;5008871;28;20046;-71
2022/04/19 01:31:44;;;;;;;3.17;1.60;;;;;;;6.93;54.48;101085.97;5009549;28;20057;-71
2022/04/19 01:34:11;;;;;;;3.13;1.42;;;;;;;7.00;54.38;101090.06;5001955;28;20117;-70
2022/04/19 01:36:38;;;;;;;9.02;1.80;;;;;;;6.72;55.03;101079.66;5001352;28;20129;-70
2022/04/19 01:39:08;;;;;;;2.35;1.38;;;;;;;6.74;54.85;101086.53;4989307;28;20046;-70
2022/04/19 01:41:34;;;;;;;5.65;1.65;;;;;;;6.57;55.28;101087.94;4989875;28;20046;-70
2022/04/19 01:44:01;;;;;;;2.95;1.60;;;;;;;6.43;55.98;101082.28;4999863;28;20111;-70
2022/04/19 01:46:27;;;;;;;3.13;1.58;;;;;;;6.16;56.74;101087.38;4980963;28;20483;-70
2022/04/19 01:48:54;;;;;;;4.85;1.80;;;;;;;5.94;57.97;101091.47;4988334;28;20169;-70
2022/04/19 01:51:21;;;;;;;1.90;1.20;;;;;;;5.93;58.28;101097.56;4989582;28;20073;-70
2022/04/19 01:53:48;;;;;;;4.43;1.45;;;;;;;5.99;58.20;101096.53;4988305;28;20051;-70
2022/04/19 01:56:16;;;;;;;2.88;1.50;;;;;;;6.02;57.78;101092.13;4970161;28;20050;-70
2022/04/19 01:58:42;;;;;;;2.83;1.60;;;;;;;6.09;57.81;101082.38;4990376;28;20433;-71
2022/04/19 02:01:09;;;;;;;3.17;1.50;;;;;;;6.13;57.46;101091.81;4997616;28;20048;-71
2022/04/19 02:03:35;;;;;;;4.72;1.60;;;;;;;6.06;57.68;101087.69;5010786;28;20070;-71
2022/04/19 02:06:02;;;;;;;2.63;1.67;;;;;;;6.08;57.73;101091.09;4987661;28;20042;-71
2022/04/19 02:08:29;;;;;;;2.25;1.33;;;;;;;6.06;57.57;101082.47;4989127;28;20097;-70
2022/04/19 02:10:55;;;;;;;4.03;1.70;;;;;;;6.22;57.34;101076.78;4988522;28;20125;-70
2022/04/19 02:13:22;;;;;;;3.35;1.60;;;;;;;6.20;57.09;101080.34;4989462;28;20105;-70
2022/04/19 02:15:49;;;;;;;3.20;1.48;;;;;;;5.98;57.77;101072.28;4989873;28;20136;-70
2022/04/19 02:18:15;;;;;;;4.93;1.55;;;;;;;5.58;59.41;101075.03;4999135;28;20050;-70
2022/04/19 02:20:43;;;;;;;3.80;1.70;;;;;;;5.60;60.28;101077.59;4990858;28;20050;-70
2022/04/19 02:23:10;;;;;;;3.45;1.70;;;;;;;5.52;61.49;101083.00;4991327;28;20487;-70
2022/04/19 02:25:36;;;;;;;4.20;1.45;;;;;;;5.55;61.74;101085.53;5004806;28;20092;-70
2022/04/19 02:28:06;;;;;;;3.10;1.55;;;;;;;5.52;62.79;101077.78;4999509;28;20119;-72
2022/04/19 02:30:34;;;;;;;3.28;1.70;;;;;;;5.40;63.40;101080.69;4984449;28;20483;-71
2022/04/19 02:33:01;;;;;;;3.10;1.80;;;;;;;5.30;64.06;101076.63;5005264;28;20047;-71
2022/04/19 02:35:28;;;;;;;3.17;1.95;;;;;;;5.62;63.33;101076.66;5002176;28;20097;-71
2022/04/19 02:37:56;;;;;;;4.45;2.15;;;;;;;5.73;62.19;101072.03;4989042;28;20050;-70
2022/04/19 02:40:24;;;;;;;2.42;1.60;;;;;;;5.50;62.85;101087.41;4988646;28;20077;-70
2022/04/19 02:42:54;;;;;;;4.10;1.67;;;;;;;5.67;61.79;101074.81;4989436;28;20100;-70
2022/04/19 02:45:22;;;;;;;3.80;1.73;;;;;;;5.74;61.83;101075.50;4990344;28;20448;-71
2022/04/19 02:48:03;;;;;;;3.92;1.75;;;;;;;5.67;61.81;101080.00;5008844;28;20399;-71
2022/04/19 02:50:29;;;;;;;3.03;1.67;;;;;;;5.83;60.92;101072.66;5011425;28;20445;-71
2022/04/19 02:52:55;;;;;;;3.00;1.60;;;;;;;5.98;60.76;101074.88;5025677;28;20065;-71
2022/04/19 02:55:22;;;;;;;3.72;1.77;;;;;;;6.20;59.66;101075.13;5018020;28;20034;-70
2022/04/19 02:57:48;;;;;;;2.83;1.50;;;;;;;6.18;59.56;101076.91;5014644;28;20073;-70
2022/04/19 03:00:15;;;;;;;3.10;1.65;;;;;;;6.14;59.63;101072.69;5013473;28;20065;-70
2022/04/19 03:02:42;;;;;;;6.68;2.03;;;;;;;6.09;59.54;101074.56;5023776;28;20300;-71
2022/04/19 03:05:10;;;;;;;3.72;1.80;;;;;;;6.25;58.86;101068.03;5026518;28;20035;-71
2022/04/19 03:07:36;;;;;;;3.25;1.70;;;;;;;6.04;59.74;101063.44;5013562;28;20045;-71
2022/04/19 03:10:03;;;;;;;3.38;1.67;;;;;;;6.18;59.44;101067.34;5010335;28;20096;-71
2022/04/19 03:12:29;;;;;;;3.65;1.60;;;;;;;6.07;60.30;101076.34;5012973;28;20046;-71
2022/04/19 03:14:56;;;;;;;6.22;2.03;;;;;;;6.01;60.56;101073.94;5011370;28;20045;-71
2022/04/19 03:17:22;;;;;;;3.25;1.83;;;;;;;5.96;60.70;101083.59;5012229;28;20045;-71
2022/04/19 03:19:48;;;;;;;2.47;1.65;;;;;;;5.96;60.36;101078.41;5011443;28;20100;-71
2022/04/19 03:22:16;;;;;;;3.75;1.88;;;;;;;5.98;59.94;101085.28;5008205;28;20111;-71
2022/04/19 03:30:08;;;;;;;6.18;1.85;;;;;;;5.90;60.07;101078.56;4991464;28;20060;-71
2022/04/19 03:32:35;;;;;;;3.28;1.88;;;;;;;5.91;59.96;101075.09;5012728;28;20824;-71
2022/04/19 03:35:01;;;;;;;3.33;1.70;;;;;;;5.94;59.73;101072.41;5003464;28;20104;-71
2022/04/19 03:37:30;;;;;;;3.53;1.80;;;;;;;5.98;59.43;101063.59;4997021;28;20069;-71
2022/04/19 03:39:56;;;;;;;2.97;1.60;;;;;;;6.11;59.08;101072.78;4991411;28;20054;-71
2022/04/19 03:42:24;;;;;;;4.32;1.88;;;;;;;5.94;59.20;101082.81;4997087;28;20046;-71
2022/04/19 03:44:51;;;;;;;3.88;1.65;;;;;;;5.87;59.71;101084.72;5011811;28;20038;-71
2022/04/19 03:47:17;;;;;;;3.40;1.70;;;;;;;5.94;59.71;101075.84;5011774;28;20041;-71
2022/04/19 03:49:44;;;;;;;4.00;1.85;;;;;;;6.17;59.07;101080.44;5010613;28;20072;-71
2022/04/19 03:52:10;;;;;;;3.05;1.70;;;;;;;6.04;59.30;101079.91;5009886;28;20045;-71
2022/04/19 03:54:38;;;;;;;3.22;1.77;;;;;;;5.80;59.81;101078.78;4999153;28;20100;-71
2022/04/19 03:57:07;;;;;;;3.35;1.75;;;;;;;5.87;59.75;101077.75;5006979;28;20050;-71
2022/04/19 03:59:34;;;;;;;3.33;1.70;;;;;;;6.02;58.83;101075.66;5010496;28;20425;-71
2022/04/19 04:02:00;;;;;;;3.63;1.65;;;;;;;6.00;59.23;101072.22;5005600;28;20050;-71
2022/04/19 04:04:30;;;;;;;4.32;1.70;;;;;;;6.11;59.01;101071.03;5007223;28;20062;-71
2022/04/19 04:06:57;;;;;;;5.00;1.77;;;;;;;6.17;58.60;101064.81;5003916;28;20403;-71
2022/04/19 04:09:23;;;;;;;4.93;2.03;;;;;;;6.31;57.59;101060.91;5010513;28;20461;-71
2022/04/19 04:11:51;;;;;;;4.47;2.00;;;;;;;6.29;57.80;101065.28;5010166;28;20049;-71
2022/04/19 04:14:17;;;;;;;3.90;2.08;;;;;;;6.51;57.37;101056.84;5005757;28;20092;-71
2022/04/19 04:16:43;;;;;;;5.03;1.80;;;;;;;6.54;57.54;101060.19;5002107;28;20045;-75
2022/04/19 04:19:10;;;;;;;4.32;1.90;;;;;;;6.60;57.33;101057.44;5010462;28;20502;-71
2022/04/19 04:21:36;;;;;;;3.38;1.88;;;;;;;6.64;57.44;101060.78;5006555;28;20112;-71
2022/04/19 04:24:03;;;;;;;9.43;1.80;;;;;;;6.58;57.41;101074.00;5008844;28;20050;-71
2022/04/19 04:26:29;;;;;;;3.72;2.03;;;;;;;6.45;58.29;101065.69;4992236;28;20047;-71
2022/04/19 04:28:57;;;;;;;3.67;1.80;;;;;;;6.32;58.20;101070.41;4989271;28;20530;-71
2022/04/19 04:31:23;;;;;;;3.35;1.73;;;;;;;6.43;58.09;101077.06;5007260;28;20100;-71
2022/04/19 04:33:49;;;;;;;3.03;1.73;;;;;;;6.39;58.14;101078.06;5010146;28;20092;-71
2022/04/19 04:36:16;;;;;;;3.80;2.17;;;;;;;6.34;58.43;101088.59;5010590;28;20108;-71
2022/04/19 04:38:43;;;;;;;3.30;1.83;;;;;;;6.24;58.33;101082.81;5010084;28;20577;-72
2022/04/19 04:41:09;;;;;;;4.07;1.77;;;;;;;6.25;57.76;101079.28;5010851;28;20074;-71
2022/04/19 04:43:35;;;;;;;6.13;1.85;;;;;;;6.48;57.30;101080.38;5000830;28;20046;-72
2022/04/19 04:51:31;;;;;;;5.00;1.73;;;;;;;6.53;56.40;101091.53;4999753;28;20049;-71
2022/04/19 04:53:57;;;;;;;4.72;1.67;;;;;;;6.46;56.95;101082.19;5002009;28;20042;-71
2022/04/19 04:56:24;;;;;;;4.15;1.80;;;;;;;6.67;57.10;101087.63;5009690;28;20564;-71
2022/04/19 04:58:50;;;;;;;4.05;2.13;;;;;;;6.69;57.04;101090.16;5009660;28;20049;-71
2022/04/19 05:01:18;;;;;;;4.53;1.80;;;;;;;6.96;56.11;101088.47;5010452;28;20050;-71
2022/04/19 05:03:44;;;;;;;3.22;1.77;;;;;;;6.63;56.98;101088.59;5008835;28;20477;-71
2022/04/19 05:06:11;;;;;;;5.47;1.90;;;;;;;6.71;56.78;101097.03;5010994;28;20050;-71
2022/04/19 05:08:37;;;;;;;3.47;1.77;;;;;;;7.02;56.74;101094.34;5010030;28;20053;-71
2022/04/19 05:11:03;;;;;;;6.97;2.13;;;;;;;7.03;56.15;101092.59;5009234;28;20414;-72
2022/04/19 05:13:30;;;;;;;4.78;2.55;;;;;;;7.48;55.58;101088.50;5009189;28;20652;-72
2022/04/19 05:15:58;;;;;;;3.55;1.95;;;;;;;7.74;54.95;101082.38;5009958;28;20054;-71
2022/04/19 05:18:26;;;;;;;4.53;2.05;;;;;;;8.04;54.23;101085.69;5009703;28;20057;-71
2022/04/19 05:20:52;;;;;;;4.32;2.30;;;;;;;8.14;53.71;101081.81;5008289;28;20457;-71
2022/04/19 05:23:19;;;;;;;4.30;2.38;;;;;;;8.51;52.83;101090.06;5002033;28;20034;-71
2022/04/19 05:25:45;;;;;;;4.88;2.30;;;;;;;8.62;52.17;101082.66;5006151;28;20050;-71
2022/04/19 05:28:12;;;;;;;3.70;2.50;;;;;;;8.18;53.28;101088.66;5005515;28;20121;-70
2022/04/19 05:30:38;;;;;;;3.75;2.40;;;;;;;8.54;53.01;101073.38;5009020;28;20041;-70
2022/04/19 05:33:05;;;;;;;7.03;2.40;;;;;;;8.68;51.38;101071.13;5008838;28;20100;-70
2022/04/19 05:35:33;;;;;;;4.00;2.20;;;;;;;8.99;51.92;101084.69;5009617;28;20805;-70
2022/04/19 05:38:00;;;;;;;4.28;2.00;;;;;;;9.48;51.47;101080.09;5006556;28;20052;-71
2022/04/19 05:40:26;;;;;;;6.45;2.30;;;;;;;9.69;49.93;101074.78;5005873;28;20052;-71
2022/04/19 05:42:53;;;;;;;4.90;1.95;;;;;;;9.92;49.34;101075.56;5007890;28;20502;-71
2022/04/19 05:45:19;;;;;;;7.68;2.20;;;;;;;10.03;48.47;101079.44;5009458;28;20050;-71
2022/04/19 05:47:46;;;;;;;5.28;2.20;;;;;;;10.30;49.35;101072.16;5008416;28;20489;-71
2022/04/19 05:50:12;;;;;;;3.17;2.00;;;;;;;10.88;48.04;101074.69;5008835;28;20686;-72
2022/04/19 05:52:40;;;;;;;4.93;2.20;;;;;;;11.01;47.21;101075.81;5000658;28;20494;-72
2022/04/19 05:55:08;;;;;;;7.85;2.00;;;;;;;10.58;47.27;101072.56;5009304;28;20522;-72
2022/04/19 05:57:34;;;;;;;4.93;1.80;;;;;;;11.31;46.75;101078.72;4989759;28;20124;-72
2022/04/19 06:00:00;;;;;;;3.72;2.08;;;;;;;11.75;45.38;101085.22;4989002;28;20093;-72
2022/04/19 06:05:11;;;;;;;4.90;1.90;;;;;;;12.11;44.40;101096.50;5008943;28;20053;-72
2022/04/19 06:07:45;;;;;;;5.65;2.10;;;;;;;11.82;43.51;101083.16;5008899;28;20112;-72
2022/04/19 06:10:14;;;;;;;3.38;2.00;;;;;;;11.97;44.91;101079.75;5003077;28;20043;-72
2022/04/19 06:12:40;;;;;;;9.35;2.45;;;;;;;12.50;42.98;101082.13;4986512;28;20563;-72
2022/04/19 06:15:07;;;;;;;4.70;2.20;;;;;;;12.19;42.03;101080.31;4995813;28;20038;-72
2022/04/19 06:17:35;;;;;;;6.00;2.00;;;;;;;12.22;44.83;101076.66;4990155;28;20443;-72
2022/04/19 06:20:02;;;;;;;5.03;2.15;;;;;;;12.44;44.22;101070.19;4989757;28;20132;-72
2022/04/19 06:22:29;;;;;;;4.10;2.20;;;;;;;12.25;42.56;101074.72;4999687;28;20498;-72
2022/04/19 06:24:57;;;;;;;3.83;1.55;;;;;;;12.48;42.41;101084.88;5007924;28;20508;-72
2022/04/19 06:27:24;;;;;;;4.35;1.95;;;;;;;12.62;42.39;101071.81;4990649;28;20073;-72
2022/04/19 06:29:52;;;;;;;4.40;2.05;;;;;;;13.10;42.19;101080.56;5005319;28;20093;-72
2022/04/19 06:32:18;;;;;;;5.53;2.20;;;;;;;13.48;41.22;101076.59;5006179;28;20061;-71
2022/04/19 06:34:44;;;;;;;4.20;1.70;;;;;;;13.27;40.87;101079.59;5009490;28;20119;-71
2022/04/19 06:37:11;;;;;;;5.93;1.92;;;;;;;13.54;40.07;101083.28;5022695;28;20056;-71
2022/04/19 06:39:38;;;;;;;4.95;2.15;;;;;;;13.80;40.80;101087.00;5032832;28;20037;-71
2022/04/19 06:42:06;;;;;;;4.47;2.22;;;;;;;13.63;40.11;101083.56;5014113;28;20054;-70
2022/04/19 06:44:32;;;;;;;5.78;2.00;;;;;;;13.70;40.22;101086.72;5031760;28;20050;-70
2022/04/19 06:46:58;;;;;;;3.97;2.03;;;;;;;14.07;40.18;101080.09;5032230;28;20045;-71
2022/04/19 06:49:25;;;;;;;4.18;1.92;;;;;;;13.88;39.99;101087.41;5012295;28;20104;-70
2022/04/19 06:51:51;;;;;;;4.43;2.08;;;;;;;13.95;40.37;101080.81;5023883;28;20041;-70
2022/04/19 06:54:17;;;;;;;4.97;2.05;;;;;;;14.50;40.27;101081.81;5032640;28;20154;-72
2022/04/19 06:56:45;;;;;;;3.53;1.90;;;;;;;14.83;40.75;101085.88;5023465;28;20068;-71
2022/04/19 06:59:13;;;;;;;6.90;2.20;;;;;;;14.82;39.35;101084.22;5010801;28;20046;-71
2022/04/19 07:01:43;;;;;;;2.88;2.00;;;;;;;14.98;39.73;101091.03;5009938;28;20038;-72
2022/04/19 07:04:09;;;;;;;3.60;2.10;;;;;;;14.61;38.47;101081.13;4988127;28;20092;-71
2022/04/19 07:06:35;;;;;;;4.70;2.40;;;;;;;14.66;40.47;101084.34;5008487;28;20391;-72
2022/04/19 07:09:02;;;;;;;4.45;2.17;;;;;;;14.97;40.19;101077.94;5001309;28;20101;-72
2022/04/19 07:11:29;;;;;;;3.53;2.00;;;;;;;15.08;39.06;101080.72;4998288;28;20490;-71
2022/04/19 07:13:56;;;;;;;3.78;1.92;;;;;;;15.85;36.90;101082.66;4976226;28;20051;-71
2022/04/19 07:16:23;;;;;;;2.35;1.73;;;;;;;16.08;36.30;101074.81;4987609;28;20399;-70
2022/04/19 07:18:50;;;;;;;3.20;1.95;;;;;;;16.48;39.21;101070.22;5001019;28;20046;-70
2022/04/19 07:26:45;;;;;;;3.03;1.80;;;;;;;16.01;33.23;101078.00;4991405;28;20142;-71
2022/04/19 07:29:12;;;;;;;3.97;1.65;;;;;;;16.57;33.22;101081.16;4987894;28;20062;-71
2022/04/19 07:31:41;;;;;;;3.40;1.90;;;;;;;16.33;33.76;101079.25;5007887;28;20042;-71
2022/04/19 07:34:08;;;;;;;2.50;1.70;;;;;;;15.81;35.17;101082.03;5005155;28;20049;-70
2022/04/19 07:36:35;;;;;;;2.72;1.70;;;;;;;16.17;33.83;101076.00;5006621;28;20057;-70
2022/04/19 07:39:03;;;;;;;3.85;2.00;;;;;;;16.08;34.62;101087.19;5006770;28;20045;-70
2022/04/19 07:41:30;;;;;;;2.67;1.52;;;;;;;16.33;34.56;101086.38;5007366;28;20049;-70
2022/04/19 07:43:56;;;;;;;3.35;1.80;;;;;;;16.28;34.63;101089.31;5003743;28;20077;-70
2022/04/19 07:46:23;;;;;;;3.25;1.80;;;;;;;16.94;34.63;101077.56;5006809;28;20046;-70
2022/04/19 07:48:51;;;;;;;2.63;1.45;;;;;;;17.16;32.08;101069.72;5007067;28;20050;-70
2022/04/19 07:51:18;;;;;;;2.53;1.70;;;;;;;17.27;33.10;101072.44;5006963;28;20104;-70
2022/04/19 07:53:45;;;;;;;4.78;1.98;;;;;;;17.41;32.86;101068.75;4998712;28;20050;-70
2022/04/19 07:56:12;;;;;;;4.75;2.17;;;;;;;17.48;31.73;101076.13;4988120;28;20113;-71
2022/04/19 07:58:38;;;;;;;4.00;1.90;;;;;;;17.30;32.37;101082.78;4995487;28;20070;-71
2022/04/19 08:01:05;;;;;;;3.60;1.88;;;;;;;17.59;30.08;101066.56;5003364;28;20046;-71
2022/04/19 08:03:32;;;;;;;5.45;1.85;;;;;;;17.71;32.71;101070.91;5005741;28;20053;-71
2022/04/19 08:05:59;;;;;;;4.18;1.90;;;;;;;18.11;31.06;101074.84;4992568;28;20061;-70
2022/04/19 08:08:26;;;;;;;3.25;1.60;;;;;;;17.90;32.06;101076.50;5009124;28;20119;-71
2022/04/19 08:10:52;;;;;;;5.65;1.50;;;;;;;17.63;33.34;101075.97;5010298;28;20050;-71
2022/04/19 08:13:19;;;;;;;2.50;1.48;;;;;;;17.15;31.15;101078.63;5004726;28;20042;-70
2022/04/19 08:15:46;;;;;;;2.50;1.50;;;;;;;17.02;30.26;101080.50;5005947;28;20046;-71
2022/04/19 08:18:14;;;;;;;4.28;1.80;;;;;;;16.71;30.75;101081.00;5001618;28;20042;-68
2022/04/19 08:20:40;;;;;;;2.22;1.40;;;;;;;17.34;33.21;101081.63;4997492;28;20557;-69
2022/04/19 08:23:08;;;;;;;3.15;1.60;;;;;;;17.83;31.17;101091.22;4994119;28;20042;-68
2022/04/19 08:25:35;;;;;;;3.80;1.80;;;;;;;18.69;31.65;101080.94;4997434;28;20505;-68
2022/04/19 08:28:01;;;;;;;3.95;1.70;;;;;;;18.52;30.74;101084.06;4990547;28;20495;-68
2022/04/19 08:30:27;;;;;;;5.75;1.65;;;;;;;19.16;30.11;101087.69;5008501;28;20066;-68
2022/04/19 08:32:54;;;;;;;2.50;1.45;;;;;;;18.23;29.33;101088.97;5008594;28;20042;-69
2022/04/19 08:35:20;;;;;;;5.15;1.80;;;;;;;18.90;29.77;101082.69;5003248;28;20607;-68
2022/04/19 08:37:46;;;;;;;3.30;1.63;;;;;;;18.92;27.65;101090.53;4998459;28;20058;-68
2022/04/19 08:40:15;;;;;;;2.40;1.50;;;;;;;19.48;28.92;101093.88;5010308;28;20042;-69
2022/04/19 08:42:42;;;;;;;2.97;1.40;;;;;;;19.82;28.18;101092.75;5002757;28;20127;-69
2022/04/19 08:45:10;;;;;;;4.22;1.67;;;;;;;19.43;26.55;101093.44;5006039;28;20095;-69
2022/04/19 08:47:39;;;;;;;5.00;1.45;;;;;;;18.89;29.30;101093.44;5009931;28;20363;-69
2022/04/19 08:50:09;;;;;;;3.63;1.63;;;;;;;18.73;27.34;101093.00;5002733;28;20066;-69
2022/04/19 08:52:36;;;;;;;5.68;1.70;;;;;;;19.17;28.38;101095.56;4989985;28;20130;-70
2022/04/19 08:57:50;;;;;;;3.30;1.60;;;;;;;19.65;29.89;101113.78;4993106;28;20729;-68
2022/04/19 09:00:17;;;;;;;3.58;1.73;;;;;;;19.90;28.59;101106.25;4998015;28;20053;-68
2022/04/19 09:02:45;;;;;;;3.90;2.00;;;;;;;20.30;29.30;101114.38;5010727;28;20049;-68
2022/04/19 09:05:16;;;;;;;3.85;1.70;;;;;;;20.30;27.51;101106.38;5010250;28;20038;-68
2022/04/19 09:07:44;;;;;;;2.97;1.52;;;;;;;20.03;28.82;101108.69;4987174;28;20132;-69
2022/04/19 09:10:15;;;;;;;2.65;1.58;;;;;;;20.37;28.40;101102.22;4993605;28;20097;-68
2022/04/19 09:13:01;;;;;;;2.25;1.33;;;;;;;20.00;24.91;101098.31;4993115;28;20042;-68
2022/04/19 09:15:39;;;;;;;2.22;1.25;;;;;;;20.35;24.38;101093.53;5003808;28;20526;-68
2022/04/19 09:18:06;;;;;;;3.13;1.45;;;;;;;20.07;25.44;101098.63;5008967;28;20057;-68
2022/04/19 09:20:33;;;;;;;3.30;1.35;;;;;;;20.34;27.42;101098.97;5008955;28;20045;-68
2022/04/19 09:23:02;;;;;;;2.85;1.58;;;;;;;19.80;24.70;101097.38;4996748;28;20074;-69
2022/04/19 09:25:29;;;;;;;6.50;1.63;;;;;;;20.05;28.01;101101.44;5003223;28;20473;-68
2022/04/19 09:27:57;;;;;;;2.90;1.40;;;;;;;20.21;26.58;101091.16;5009172;28;20104;-69
2022/04/19 09:30:26;;;;;;;5.40;1.35;;;;;;;20.74;26.32;101089.16;5008154;28;20387;-69
2022/04/19 09:33:08;;;;;;;3.22;1.30;;;;;;;21.16;27.73;101089.00;4998002;28;20049;-68
2022/04/19 09:35:36;;;;;;;3.47;1.60;;;;;;;21.17;24.36;101077.38;5009140;28;20092;-68
2022/04/19 09:38:05;;;;;;;3.22;1.30;;;;;;;20.78;24.24;101074.59;5006797;28;20050;-69
2022/04/19 09:40:33;;;;;;;2.17;1.42;;;;;;;20.65;27.60;101075.81;4989636;28;20466;-69
2022/04/19 09:43:10;;;;;;;2.10;1.13;;;;;;;21.15;27.47;101074.81;4989766;28;20096;-70
2022/04/19 09:45:56;;;;;;;2.35;1.08;;;;;;;21.03;25.46;101075.88;4989758;28;20092;-68
2022/04/19 09:48:24;;;;;;;2.65;1.30;;;;;;;20.80;23.86;101069.94;5008009;28;20062;-68
2022/04/19 09:50:57;;;;;;;2.53;1.20;;;;;;;21.09;24.07;101072.69;5007853;28;20387;-68
2022/04/19 09:53:25;;;;;;;8.48;1.40;;;;;;;20.77;28.67;101072.03;5006700;28;20454;-68
2022/04/19 09:55:52;;;;;;;1.98;1.25;;;;;;;20.93;26.02;101069.72;5006723;28;20057;-68
2022/04/19 09:58:20;;;;;;;4.72;1.30;;;;;;;21.16;25.06;101070.34;5008829;28;20054;-69
2022/04/19 10:00:47;;;;;;;4.22;1.30;;;;;;;21.36;24.92;101067.53;5004735;28;20499;-69
2022/04/19 10:08:59;;;;;;;2.20;1.10;;;;;;;21.02;26.09;101076.91;4988963;28;20042;-68
2022/04/19 10:11:27;;;;;;;2.30;1.50;;;;;;;20.98;25.75;101075.47;5008169;28;20050;-69
2022/04/19 10:13:54;;;;;;;1.35;1.00;;;;;;;21.44;25.37;101071.31;5008319;28;20046;-69
2022/04/19 10:16:21;;;;;;;2.28;1.20;;;;;;;21.54;27.40;101069.50;5008180;28;20495;-69
2022/04/19 10:18:48;;;;;;;3.25;1.20;;;;;;;21.41;25.67;101079.59;5006446;28;20483;-69
2022/04/19 10:21:20;;;;;;;3.08;1.20;;;;;;;20.94;27.11;101082.06;5008166;28;20395;-69
2022/04/19 10:23:47;;;;;;;3.42;1.50;;;;;;;21.37;27.40;101076.38;5007829;28;20050;-70
2022/04/19 10:26:19;;;;;;;4.13;1.30;;;;;;;21.53;26.04;101076.66;4996059;28;20057;-70
2022/04/19 10:28:46;;;;;;;2.53;1.38;;;;;;;21.51;23.23;101070.59;5005851;28;20046;-69
2022/04/19 10:31:14;;;;;;;3.67;1.23;;;;;;;21.79;25.74;101071.56;5007726;28;20045;-70
2022/04/19 10:33:48;;;;;;;3.63;1.58;;;;;;;21.68;26.33;101077.91;5008498;28;20049;-69
2022/04/19 10:36:20;;;;;;;7.25;1.60;;;;;;;21.48;24.57;101078.91;5008410;28;20784;-69
2022/04/19 10:39:03;;;;;;;9.48;1.65;;;;;;;21.70;26.38;101083.09;5006744;28;20045;-69
2022/04/19 10:41:45;;;;;;;3.05;1.58;;;;;;;21.72;25.86;101079.31;4988117;28;20042;-69
2022/04/19 10:44:25;;;;;;;;;;;;;;;21.42;25.78;101075.97;4982267;28;20038;-69
2022/04/19 10:47:06;;;;;;;4.43;1.63;;;;;;;21.52;25.44;101074.97;4998357;28;20539;-69
2022/04/19 10:49:46;;;;;;;3.38;1.83;;;;;;;21.32;26.37;101071.47;4988388;28;20050;-69
2022/04/19 10:52:48;;;;;;;3.70;2.00;;;;;;;21.71;26.06;101074.97;4993687;28;20104;-69
2022/04/19 10:55:28;;;;;;;4.43;2.13;;;;;;;21.48;24.22;101067.38;5000160;28;20057;-69
2022/04/19 10:58:08;;;;;;;6.07;2.90;;;;;;;21.13;24.44;101066.13;5005157;28;20092;-69
2022/04/19 11:00:38;;;;;;;4.22;2.70;;;;;;;21.01;25.04;101075.19;4988521;28;20046;-68
2022/04/19 11:03:05;;;;;;;4.80;2.53;;;;;;;21.25;26.42;101065.00;4988136;28;20166;-68
2022/04/19 11:05:41;;;;;;;4.07;2.72;;;;;;;21.88;27.32;101062.69;4988039;28;20058;-69
2022/04/19 11:08:22;;;;;;;5.43;2.80;;;;;;;21.03;23.35;101059.03;4984872;28;20058;-68
2022/04/19 11:10:49;;;;;;;7.47;2.33;;;;;;;20.84;24.55;101070.56;5002657;28;20097;-69
2022/04/19 11:13:15;;;;;;;3.78;2.55;;;;;;;20.13;25.71;101069.69;5005191;28;20097;-66
2022/04/19 11:15:43;;;;;;;3.97;2.65;;;;;;;20.74;29.37;101062.50;5007039;28;20119;-66
2022/04/19 11:18:22;;;;;;;4.57;2.47;;;;;;;20.71;27.00;101062.78;4988009;28;20038;-66
2022/04/19 11:20:49;;;;;;;4.43;2.72;;;;;;;20.46;26.31;101062.44;5006934;28;20069;-66
2022/04/19 11:23:21;;;;;;;3.92;2.63;;;;;;;20.71;25.56;101056.63;5000244;28;20094;-66
2022/04/19 11:25:49;;;;;;;4.05;2.30;;;;;;;20.29;26.27;101051.41;4989692;28;20061;-66
2022/04/19 11:28:26;;;;;;;3.63;2.53;;;;;;;20.00;26.67;101060.22;5008005;28;20104;-66
2022/04/19 11:31:12;;;;;;;5.30;2.85;;;;;;;20.56;28.15;101058.81;5008359;28;20648;-66
2022/04/19 11:33:38;;;;;;;5.07;2.70;;;;;;;20.97;30.36;101057.78;4994137;28;20053;-65
2022/04/19 11:36:06;;;;;;;2.63;2.28;;;;;;;21.09;24.75;101051.34;4995612;28;20052;-65
2022/04/19 11:38:36;;;;;;;4.43;2.53;;;;;;;20.89;25.55;101049.63;5011348;28;20120;-66
2022/04/19 11:46:48;;;;;;;4.53;1.95;;;;;;;21.40;26.85;101053.91;5011009;28;20053;-67
2022/04/19 11:49:27;;;;;;;2.95;2.22;;;;;;;21.16;26.44;101055.19;4991303;28;20056;-67
2022/04/19 11:51:56;;;;;;;4.85;2.55;;;;;;;21.59;27.52;101043.22;5003684;28;20037;-67
2022/04/19 11:54:25;;;;;;;4.85;2.28;;;;;;;21.46;26.34;101048.03;4993629;28;20186;-67
2022/04/19 11:56:52;;;;;;;3.40;2.60;;;;;;;20.45;25.91;101050.09;5008004;28;20088;-67
2022/04/19 11:59:24;;;;;;;4.43;2.65;;;;;;;20.39;31.74;101052.31;5009779;28;20042;-67
2022/04/19 12:01:51;;;;;;;6.32;2.47;;;;;;;20.38;29.90;101053.28;4994186;28;20423;-67
2022/04/19 12:04:18;;;;;;;3.97;2.50;;;;;;;20.74;30.84;101043.84;4995581;28;20046;-67
2022/04/19 12:06:47;;;;;;;4.15;2.47;;;;;;;20.57;31.87;101054.34;4996041;28;20489;-67
2022/04/19 12:09:16;;;;;;;3.78;2.25;;;;;;;20.93;27.32;101047.53;5001568;28;20045;-67